Terminal Aerodrome Forecast
Issued by NWS

Home | Current Version | Previous Version | Text Only | Print | Product List | Glossary On
Versions: 1 2 3 4 5 6 7 8 9 10 11 12 13 14 15 16 17 18 19 20 21
660
FTUS41 KBTV 121959 AAA
TAFMSS
TAF AMD
KMSS 121959Z 1220/1318 20012G20KT 3/4SM -SN BR BKN020 OVC025
     FM130000 21010G18KT 1SM -SN BR OVC020
     FM130300 27012G20KT 4SM -SHSN BR OVC020
     FM130700 30018G28KT P6SM -SHSN OVC025=

USA.gov is the U.S. government's official web portal to all federal, state and local government web resources and services.